createdAt,value
2019-03-28T00:00:44.482Z,72.21
2019-03-28T00:03:14.362Z,72.20
2019-03-28T00:05:44.616Z,72.45
2019-03-28T00:08:14.376Z,72.54
2019-03-28T00:10:44.171Z,72.50
2019-03-28T00:13:13.914Z,72.56
2019-03-28T00:15:44.158Z,72.50
2019-03-28T00:18:13.863Z,72.41
2019-03-28T00:20:44.115Z,72.53
2019-03-28T00:23:28.907Z,72.54
2019-03-28T00:25:58.708Z,72.51
2019-03-28T00:28:29.476Z,72.45
2019-03-28T00:30:59.217Z,72.62
2019-03-28T00:33:28.916Z,72.73
2019-03-28T00:35:59.043Z,72.79
2019-03-28T00:38:28.749Z,72.77
2019-03-28T00:40:58.539Z,72.77
2019-03-28T00:43:28.313Z,72.78
2019-03-28T00:45:58.006Z,72.73
2019-03-28T00:48:28.146Z,72.79
2019-03-28T00:50:57.930Z,72.90
2019-03-28T00:53:29.234Z,72.93
2019-03-28T00:55:59.506Z,72.96
2019-03-28T00:58:29.266Z,72.94
2019-03-28T01:00:59.535Z,73.12
2019-03-28T01:03:29.365Z,73.13
2019-03-28T01:05:59.112Z,73.23
2019-03-28T01:08:29.983Z,73.25
2019-03-28T01:10:59.916Z,73.37
2019-03-28T01:13:29.974Z,73.40
2019-03-28T01:15:59.721Z,73.44
2019-03-28T01:18:29.449Z,73.54
2019-03-28T01:20:59.541Z,73.60
2019-03-28T01:23:30.110Z,73.65
2019-03-28T01:26:00.523Z,73.79
2019-03-28T01:28:30.612Z,73.90
2019-03-28T01:31:00.331Z,73.98
2019-03-28T01:33:30.493Z,73.94
2019-03-28T01:36:00.993Z,74.02
2019-03-28T01:38:33.269Z,74.08
2019-03-28T01:41:04.250Z,74.14
2019-03-28T01:43:35.226Z,74.15
2019-03-28T01:46:05.023Z,74.06
2019-03-28T01:48:34.791Z,74.23
2019-03-28T01:51:05.666Z,74.25
2019-03-28T01:53:36.375Z,74.36
2019-03-28T01:56:07.951Z,74.49
2019-03-28T01:58:38.036Z,74.45
2019-03-28T02:01:07.762Z,74.47
2019-03-28T02:03:38.296Z,74.49
2019-03-28T02:06:08.743Z,74.49
2019-03-28T02:08:38.979Z,74.50
2019-03-28T02:11:09.260Z,74.47
2019-03-28T02:13:39.072Z,74.55
2019-03-28T02:16:09.167Z,74.57
2019-03-28T02:18:38.915Z,74.57
2019-03-28T02:21:09.700Z,74.87
2019-03-28T02:23:39.768Z,74.87
2019-03-28T02:26:09.878Z,74.81
2019-03-28T02:28:39.630Z,74.84
2019-03-28T02:31:09.831Z,74.89
2019-03-28T02:33:39.992Z,74.91
2019-03-28T02:36:09.838Z,75.01
2019-03-28T02:38:39.570Z,75.01
2019-03-28T02:41:10.048Z,75.04
2019-03-28T02:43:39.776Z,75.10
2019-03-28T02:46:09.970Z,75.22
2019-03-28T02:48:39.802Z,75.26
2019-03-28T02:51:10.262Z,75.32
2019-03-28T02:53:40.389Z,75.37
2019-03-28T02:56:10.936Z,75.42
2019-03-28T02:58:41.072Z,75.37
2019-03-28T03:01:11.151Z,75.42
2019-03-28T03:03:41.187Z,75.48
2019-03-28T03:06:10.991Z,75.47
2019-03-28T03:08:40.765Z,75.40
2019-03-28T03:11:10.507Z,75.43
2019-03-28T03:13:41.045Z,75.47
2019-03-28T03:16:11.196Z,75.50
2019-03-28T03:18:41.344Z,75.59
2019-03-28T03:21:11.067Z,75.57
2019-03-28T03:23:40.803Z,75.61
2019-03-28T03:26:11.031Z,75.60
2019-03-28T03:28:40.766Z,75.61
2019-03-28T03:31:10.573Z,75.65
2019-03-28T03:33:41.110Z,75.68
2019-03-28T03:36:10.926Z,75.68
2019-03-28T03:38:41.120Z,75.72
2019-03-28T03:41:11.048Z,75.69
2019-03-28T03:43:41.323Z,75.57
2019-03-28T03:46:11.384Z,75.43
2019-03-28T03:48:41.462Z,75.55
2019-03-28T03:51:11.214Z,75.59
2019-03-28T03:53:41.050Z,75.61
2019-03-28T03:56:10.777Z,75.63
2019-03-28T03:58:40.519Z,75.74
2019-03-28T04:01:10.725Z,75.72
2019-03-28T04:03:40.799Z,75.70
2019-03-28T04:06:11.901Z,75.66
2019-03-28T04:08:42.104Z,75.69
2019-03-28T04:11:12.204Z,75.60
2019-03-28T04:13:41.952Z,75.50
2019-03-28T04:16:11.682Z,75.49
2019-03-28T04:18:41.715Z,75.49
2019-03-28T04:21:11.983Z,75.36
2019-03-28T04:23:41.873Z,75.33
2019-03-28T04:26:13.089Z,75.28
2019-03-28T04:28:42.913Z,75.40
2019-03-28T04:31:12.648Z,75.50
2019-03-28T04:33:42.830Z,75.66
2019-03-28T04:36:12.587Z,75.75
2019-03-28T04:38:43.535Z,75.69
2019-03-28T04:41:13.275Z,75.79
2019-03-28T04:43:43.025Z,75.84
2019-03-28T04:46:13.867Z,75.82
2019-03-28T04:48:43.927Z,75.65
2019-03-28T04:51:14.089Z,75.70
2019-03-28T04:53:43.895Z,75.75
2019-03-28T04:56:14.077Z,75.73
2019-03-28T04:58:44.984Z,75.78
2019-03-28T05:01:14.943Z,75.82
2019-03-28T05:03:45.735Z,75.95
2019-03-28T05:06:15.498Z,76.05
2019-03-28T05:08:45.251Z,76.14
2019-03-28T05:11:15.419Z,76.14
2019-03-28T05:13:45.415Z,76.04
2019-03-28T05:16:15.571Z,76.03
2019-03-28T05:18:45.305Z,76.13
2019-03-28T05:21:15.071Z,76.22
2019-03-28T05:23:44.844Z,76.39
2019-03-28T05:26:15.494Z,76.58
2019-03-28T05:28:56.957Z,76.83
2019-03-28T05:31:17.261Z,76.95
2019-03-28T05:33:47.021Z,76.98
2019-03-28T05:36:16.737Z,76.91
2019-03-28T05:38:46.811Z,76.81
2019-03-28T05:41:17.527Z,76.84
2019-03-28T05:43:47.921Z,77.00
2019-03-28T05:46:17.647Z,77.07
2019-03-28T05:48:47.633Z,77.22
2019-03-28T05:51:18.079Z,77.28
2019-03-28T05:53:47.857Z,77.29
2019-03-28T05:56:17.724Z,77.34
2019-03-28T05:58:47.486Z,77.31
2019-03-28T06:01:17.586Z,77.26
2019-03-28T06:03:47.382Z,77.14
2019-03-28T06:06:17.280Z,77.07
2019-03-28T06:08:47.448Z,76.94
2019-03-28T06:11:17.642Z,76.69
2019-03-28T06:13:47.416Z,76.47
2019-03-28T06:16:17.150Z,76.18
2019-03-28T06:18:47.201Z,75.91
2019-03-28T06:21:16.923Z,75.75
2019-03-28T06:23:46.827Z,75.60
2019-03-28T06:26:16.827Z,75.31
2019-03-28T06:28:46.879Z,74.87
2019-03-28T06:31:17.444Z,74.70
2019-03-28T06:33:47.860Z,74.28
2019-03-28T06:36:17.976Z,73.87
2019-03-28T06:38:47.969Z,73.20
2019-03-28T06:41:17.702Z,72.58
2019-03-28T06:43:47.965Z,72.29
2019-03-28T06:46:17.850Z,72.05
2019-03-28T06:48:48.987Z,71.56
2019-03-28T06:51:19.080Z,71.22
2019-03-28T06:53:49.634Z,71.13
2019-03-28T06:56:20.235Z,71.04
2019-03-28T06:58:50.888Z,71.20
2019-03-28T07:01:20.612Z,70.82
2019-03-28T07:03:50.445Z,69.71
2019-03-28T07:06:20.492Z,69.02
2019-03-28T07:08:51.249Z,68.19
2019-03-28T07:11:21.060Z,67.49
2019-03-28T07:13:51.597Z,66.83
2019-03-28T07:16:21.862Z,66.71
2019-03-28T07:18:51.894Z,66.69
2019-03-28T07:21:21.596Z,66.48
2019-03-28T07:23:51.354Z,66.52
2019-03-28T07:26:21.075Z,67.26
2019-03-28T07:28:54.154Z,67.26
2019-03-28T07:31:22.657Z,67.26
2019-03-28T07:33:52.509Z,67.61
2019-03-28T07:36:22.641Z,66.46
2019-03-28T07:38:52.745Z,68.04
2019-03-28T07:41:22.801Z,67.92
2019-03-28T07:43:52.703Z,68.20
2019-03-28T07:46:22.416Z,67.07
2019-03-28T07:48:52.182Z,66.35
2019-03-28T07:51:22.090Z,65.88
2019-03-28T07:53:52.282Z,65.03
2019-03-28T07:56:23.326Z,66.74
2019-03-28T07:58:53.385Z,66.05
2019-03-28T08:01:23.656Z,65.75
2019-03-28T08:03:53.361Z,64.77
2019-03-28T08:06:23.464Z,64.38
2019-03-28T08:08:53.978Z,64.92
2019-03-28T08:11:24.152Z,62.89
2019-03-28T08:13:53.874Z,64.12
2019-03-28T08:16:23.579Z,64.98
2019-03-28T08:18:53.372Z,64.06
2019-03-28T08:21:23.101Z,63.72
2019-03-28T08:23:53.205Z,64.81
2019-03-28T08:26:23.327Z,64.25
2019-03-28T08:28:53.393Z,62.31
2019-03-28T08:31:23.540Z,64.26
2019-03-28T08:33:53.853Z,64.34
2019-03-28T08:36:24.258Z,62.99
2019-03-28T08:38:54.375Z,62.67
2019-03-28T08:41:24.333Z,62.82
2019-03-28T08:43:54.075Z,62.35
2019-03-28T08:46:25.275Z,61.73
2019-03-28T08:48:55.637Z,61.02
2019-03-28T08:51:27.353Z,59.04
2019-03-28T08:53:57.529Z,60.36
2019-03-28T08:56:27.670Z,61.54
2019-03-28T08:58:57.773Z,60.92
2019-03-28T09:01:28.195Z,61.91
2019-03-28T09:03:58.846Z,59.79
2019-03-28T09:06:29.299Z,59.47
2019-03-28T09:08:59.526Z,59.61
2019-03-28T09:11:29.722Z,58.45
2019-03-28T09:13:59.454Z,59.99
2019-03-28T09:16:29.825Z,61.83
2019-03-28T09:18:59.691Z,60.85
2019-03-28T09:21:29.418Z,59.40
2019-03-28T09:24:18.009Z,58.20
2019-03-28T09:26:48.156Z,58.88
2019-03-28T09:29:18.469Z,59.26
2019-03-28T09:31:48.230Z,59.09
2019-03-28T09:34:17.929Z,58.02
2019-03-28T09:36:48.333Z,55.66
2019-03-28T09:39:19.617Z,54.49
2019-03-28T09:41:49.933Z,55.32
2019-03-28T09:44:19.791Z,54.67
2019-03-28T09:46:49.798Z,55.27
2019-03-28T09:49:19.973Z,55.26
2019-03-28T09:51:49.722Z,54.29
2019-03-28T09:54:19.811Z,56.11
2019-03-28T09:56:49.561Z,54.77
2019-03-28T09:59:19.862Z,54.07
2019-03-28T10:01:49.583Z,51.63
2019-03-28T10:04:19.374Z,55.14
2019-03-28T10:06:49.182Z,54.48
2019-03-28T10:09:19.321Z,53.64
2019-03-28T10:11:49.434Z,54.37
2019-03-28T10:14:19.176Z,53.19
2019-03-28T10:16:49.022Z,50.17
2019-03-28T10:19:19.068Z,50.17
2019-03-28T10:21:48.770Z,52.34
2019-03-28T10:24:18.579Z,52.28
2019-03-28T10:26:48.738Z,52.24
2019-03-28T10:29:18.645Z,52.64
2019-03-28T10:31:48.389Z,52.74
2019-03-28T10:34:18.103Z,52.22
2019-03-28T10:36:47.892Z,51.48
2019-03-28T10:39:17.635Z,50.95
2019-03-28T10:41:47.406Z,50.66
2019-03-28T10:44:17.914Z,50.26
2019-03-28T10:46:48.247Z,49.58
2019-03-28T10:49:17.991Z,48.65
2019-03-28T10:51:47.701Z,48.96
2019-03-28T10:54:20.524Z,47.88
2019-03-28T10:56:52.486Z,47.95
2019-03-28T10:59:24.640Z,48.89
2019-03-28T11:01:52.259Z,48.45
2019-03-28T11:04:22.671Z,49.66
2019-03-28T11:06:52.490Z,48.77
2019-03-28T11:09:22.355Z,49.06
2019-03-28T11:11:52.094Z,49.25
2019-03-28T11:14:21.795Z,49.58
2019-03-28T11:16:51.572Z,49.38
2019-03-28T11:19:21.284Z,49.24
2019-03-28T11:21:51.076Z,49.01
2019-03-28T11:24:22.356Z,50.44
2019-03-28T11:26:53.128Z,49.60
2019-03-28T11:29:22.919Z,50.62
2019-03-28T11:31:53.019Z,50.44
2019-03-28T11:34:23.136Z,50.76
2019-03-28T11:36:52.878Z,50.03
2019-03-28T11:39:22.705Z,50.07
2019-03-28T11:41:52.967Z,48.14
2019-03-28T11:44:23.060Z,49.14
2019-03-28T11:46:53.307Z,50.49
2019-03-28T11:49:23.410Z,50.95
2019-03-28T11:51:54.058Z,49.96
2019-03-28T11:54:23.976Z,51.37
2019-03-28T11:56:53.717Z,50.32
2019-03-28T11:59:23.417Z,52.15
2019-03-28T12:02:02.054Z,53.76
2019-03-28T12:04:26.900Z,52.39
2019-03-28T12:06:57.149Z,52.24
2019-03-28T12:09:27.467Z,50.92
2019-03-28T12:11:57.591Z,52.12
2019-03-28T12:14:27.787Z,51.68
2019-03-28T12:16:57.657Z,53.02
2019-03-28T12:19:27.934Z,54.03
2019-03-28T12:21:58.306Z,54.76
2019-03-28T12:24:28.069Z,54.65
2019-03-28T12:26:58.198Z,53.34
2019-03-28T12:29:28.216Z,53.24
2019-03-28T12:31:58.360Z,51.36
2019-03-28T12:34:28.049Z,52.78
2019-03-28T12:36:58.199Z,52.67
2019-03-28T12:39:27.968Z,53.10
2019-03-28T12:41:58.095Z,52.65
2019-03-28T12:44:28.191Z,52.15
2019-03-28T12:46:58.016Z,52.21
2019-03-28T12:49:27.767Z,51.39
2019-03-28T12:51:57.518Z,50.86
2019-03-28T12:54:27.321Z,51.22
2019-03-28T12:56:58.271Z,50.29
2019-03-28T12:59:28.757Z,50.62
2019-03-28T13:01:58.568Z,50.09
2019-03-28T13:04:28.334Z,50.71
2019-03-28T13:06:59.511Z,50.30
2019-03-28T13:09:30.251Z,49.96
2019-03-28T13:12:00.005Z,50.46
2019-03-28T13:14:31.533Z,51.07
2019-03-28T13:17:01.388Z,52.63
2019-03-28T13:19:31.754Z,51.16
2019-03-28T13:22:02.419Z,51.60
2019-03-28T13:24:32.354Z,51.42
2019-03-28T13:27:02.525Z,51.27
2019-03-28T13:29:33.397Z,52.17
2019-03-28T13:32:03.797Z,51.89
2019-03-28T13:34:33.923Z,51.78
2019-03-28T13:37:03.613Z,51.67
2019-03-28T13:39:33.352Z,51.27
2019-03-28T13:42:03.078Z,51.11
2019-03-28T13:44:33.335Z,50.64
2019-03-28T13:47:03.057Z,50.17
2019-03-28T13:49:32.771Z,50.58
2019-03-28T13:52:02.957Z,50.81
2019-03-28T13:54:33.269Z,50.53
2019-03-28T13:57:02.977Z,50.71
2019-03-28T13:59:35.363Z,50.54
2019-03-28T14:02:07.138Z,49.97
2019-03-28T14:04:37.034Z,51.57
2019-03-28T14:07:06.891Z,50.95
2019-03-28T14:09:36.923Z,51.13
2019-03-28T14:12:06.691Z,51.59
2019-03-28T14:14:39.908Z,51.34
2019-03-28T14:17:09.292Z,51.67
2019-03-28T14:19:39.412Z,52.27
2019-03-28T14:22:09.899Z,53.47
2019-03-28T14:24:40.015Z,52.97
2019-03-28T14:27:09.788Z,52.65
2019-03-28T14:29:40.179Z,53.45
2019-03-28T14:32:10.275Z,52.56
2019-03-28T14:34:40.049Z,52.79
2019-03-28T14:37:10.242Z,53.67
2019-03-28T14:39:41.048Z,54.20
2019-03-28T14:42:10.813Z,54.21
2019-03-28T14:44:40.991Z,54.51
2019-03-28T14:47:10.769Z,54.72
2019-03-28T14:49:41.233Z,54.69
2019-03-28T14:52:11.419Z,55.79
2019-03-28T14:54:42.483Z,55.62
2019-03-28T14:57:13.204Z,55.11
2019-03-28T14:59:44.994Z,55.52
2019-03-28T15:02:15.280Z,55.54
2019-03-28T15:04:45.590Z,55.13
2019-03-28T15:07:15.677Z,55.66
2019-03-28T15:09:45.483Z,55.54
2019-03-28T15:12:15.502Z,55.35
2019-03-28T15:14:45.214Z,55.02
2019-03-28T15:17:15.270Z,55.25
2019-03-28T15:19:44.996Z,55.26
2019-03-28T15:22:15.182Z,54.72
2019-03-28T15:24:45.284Z,55.16
2019-03-28T15:27:15.067Z,55.09
2019-03-28T15:29:45.114Z,53.36
2019-03-28T15:32:15.135Z,53.69
2019-03-28T15:34:45.333Z,53.69
2019-03-28T15:37:15.542Z,53.40
2019-03-28T15:39:45.602Z,54.01
2019-03-28T15:42:15.731Z,53.88
2019-03-28T15:44:45.462Z,54.00
2019-03-28T15:47:15.642Z,54.29
2019-03-28T15:49:45.764Z,54.57
2019-03-28T15:52:15.564Z,54.41
2019-03-28T15:54:45.714Z,54.33
2019-03-28T15:57:15.868Z,54.72
2019-03-28T15:59:46.009Z,54.35
2019-03-28T16:02:16.133Z,54.76
2019-03-28T16:04:46.434Z,54.77
2019-03-28T16:07:16.786Z,53.82
2019-03-28T16:09:46.719Z,53.61
2019-03-28T16:12:16.828Z,54.01
2019-03-28T16:14:46.651Z,53.92
2019-03-28T16:17:16.693Z,54.59
2019-03-28T16:19:46.714Z,54.27
2019-03-28T16:22:16.918Z,54.55
2019-03-28T16:24:46.743Z,54.83
2019-03-28T16:27:16.603Z,54.87
2019-03-28T16:29:46.340Z,54.55
2019-03-28T16:32:16.336Z,55.01
2019-03-28T16:34:46.557Z,55.39
2019-03-28T16:37:16.371Z,55.30
2019-03-28T16:39:46.157Z,55.20
2019-03-28T16:42:16.250Z,55.17
2019-03-28T16:44:46.040Z,54.99
2019-03-28T16:47:15.813Z,55.38
2019-03-28T16:49:45.568Z,55.36
2019-03-28T16:52:15.710Z,55.56
2019-03-28T16:54:45.627Z,55.67
2019-03-28T16:57:16.111Z,55.99
2019-03-28T16:59:45.868Z,56.45
2019-03-28T17:02:15.578Z,56.33
2019-03-28T17:04:45.330Z,56.65
2019-03-28T17:07:16.049Z,56.51
2019-03-28T17:09:46.478Z,56.74
2019-03-28T17:12:16.212Z,57.33
2019-03-28T17:14:45.944Z,57.33
2019-03-28T17:17:15.715Z,57.37
2019-03-28T17:19:45.460Z,57.19
2019-03-28T17:22:15.511Z,57.70
2019-03-28T17:24:45.273Z,57.97
2019-03-28T17:27:15.026Z,57.82
2019-03-28T17:29:45.211Z,57.89
2019-03-28T17:32:15.708Z,57.97
2019-03-28T17:34:46.140Z,57.87
2019-03-28T17:37:16.024Z,58.08
2019-03-28T17:39:45.801Z,58.33
2019-03-28T17:42:16.317Z,58.53
2019-03-28T17:44:46.082Z,58.45
2019-03-28T17:47:16.137Z,58.59
2019-03-28T17:49:45.898Z,59.07
2019-03-28T17:52:15.667Z,59.26
2019-03-28T17:54:45.791Z,59.16
2019-03-28T17:57:15.933Z,59.13
2019-03-28T17:59:45.780Z,59.33
2019-03-28T18:02:15.567Z,59.39
2019-03-28T18:04:48.139Z,59.38
2019-03-28T18:07:17.563Z,59.69
2019-03-28T18:09:47.526Z,59.80
2019-03-28T18:12:17.749Z,60.32
2019-03-28T18:14:49.603Z,60.34
2019-03-28T18:17:19.582Z,60.31
2019-03-28T18:19:49.347Z,60.03
2019-03-28T18:22:19.120Z,59.80
2019-03-28T18:24:48.917Z,59.89
2019-03-28T18:27:19.305Z,59.48
2019-03-28T18:29:49.509Z,59.96
2019-03-28T18:32:19.269Z,60.42
2019-03-28T18:34:59.433Z,60.55
2019-03-28T18:37:21.062Z,60.63
2019-03-28T18:39:50.853Z,61.06
2019-03-28T18:42:21.048Z,61.06
2019-03-28T18:44:50.914Z,60.69
2019-03-28T18:47:22.479Z,61.19
2019-03-28T18:49:52.617Z,61.41
2019-03-28T18:52:23.990Z,60.22
2019-03-28T18:54:54.110Z,60.49
2019-03-28T18:57:23.832Z,61.20
2019-03-28T18:59:54.033Z,61.82
2019-03-28T19:02:24.238Z,62.23
2019-03-28T19:04:54.495Z,62.01
2019-03-28T19:07:24.611Z,62.39
2019-03-28T19:09:54.383Z,62.26
2019-03-28T19:12:25.355Z,63.23
2019-03-28T19:14:55.208Z,63.99
2019-03-28T19:17:25.678Z,63.10
2019-03-28T19:19:59.550Z,63.40
2019-03-28T19:22:29.042Z,63.37
2019-03-28T19:24:59.127Z,62.89
2019-03-28T19:27:30.307Z,62.65
2019-03-28T19:30:01.676Z,63.94
2019-03-28T19:32:31.958Z,64.79
2019-03-28T19:35:03.316Z,64.35
2019-03-28T19:37:33.860Z,63.18
2019-03-28T19:40:06.755Z,62.95
2019-03-28T19:42:35.912Z,63.28
2019-03-28T19:45:05.939Z,63.25
2019-03-28T19:47:37.118Z,63.29
2019-03-28T19:50:08.377Z,63.59
2019-03-28T19:52:38.721Z,63.77
2019-03-28T19:55:10.976Z,63.96
2019-03-28T19:57:41.094Z,63.50
2019-03-28T20:00:11.004Z,63.87
2019-03-28T20:02:41.292Z,64.21
2019-03-28T20:05:12.830Z,64.45
2019-03-28T20:07:45.690Z,64.32
2019-03-28T20:10:16.719Z,64.29
2019-03-28T20:12:47.003Z,64.28
2019-03-28T20:15:17.939Z,64.30
2019-03-28T20:17:48.424Z,63.80
2019-03-28T20:20:18.548Z,63.76
2019-03-28T20:22:48.482Z,64.19
2019-03-28T20:25:18.778Z,64.79
2019-03-28T20:27:49.722Z,64.62
2019-03-28T20:30:19.928Z,63.99
2019-03-28T20:32:50.678Z,63.84
2019-03-28T20:35:21.918Z,64.04
2019-03-28T20:37:51.730Z,64.64
2019-03-28T20:40:22.631Z,64.89
2019-03-28T20:42:53.059Z,64.59
2019-03-28T20:45:25.680Z,64.71
2019-03-28T20:47:56.169Z,64.94
2019-03-28T20:50:31.455Z,64.77
2019-03-28T20:52:59.195Z,64.56
2019-03-28T20:55:29.507Z,64.39
2019-03-28T20:58:00.144Z,63.99
2019-03-28T21:00:41.567Z,66.39
2019-03-28T21:03:11.367Z,66.21
2019-03-28T21:05:41.157Z,65.60
2019-03-28T21:08:11.162Z,65.17
2019-03-28T21:10:41.325Z,65.07
2019-03-28T21:13:11.406Z,65.55
2019-03-28T21:15:41.195Z,65.66
2019-03-28T21:18:10.986Z,65.21
2019-03-28T21:20:41.022Z,65.34
2019-03-28T21:23:11.070Z,65.08
2019-03-28T21:25:41.308Z,64.85
2019-03-28T21:28:13.706Z,64.34
2019-03-28T21:30:47.564Z,64.76
2019-03-28T21:33:15.113Z,64.87
2019-03-28T21:35:45.978Z,65.11
2019-03-28T21:38:17.019Z,66.03
2019-03-28T21:40:46.988Z,67.13
2019-03-28T21:43:17.157Z,66.84
2019-03-28T21:45:46.918Z,66.13
2019-03-28T21:48:17.210Z,65.40
2019-03-28T21:50:47.707Z,65.48
2019-03-28T21:53:19.934Z,65.62
2019-03-28T21:55:55.104Z,65.96
2019-03-28T21:58:20.492Z,65.83
2019-03-28T22:00:50.659Z,65.75
2019-03-28T22:03:20.876Z,65.46
2019-03-28T22:05:51.250Z,65.26
2019-03-28T22:08:20.990Z,65.37
2019-03-28T22:10:50.753Z,65.23
2019-03-28T22:13:21.897Z,65.92
2019-03-28T22:15:51.705Z,66.01
2019-03-28T22:18:21.810Z,64.96
2019-03-28T22:20:52.000Z,63.73
2019-03-28T22:23:21.749Z,63.86
2019-03-28T22:25:51.974Z,63.52
2019-03-28T22:28:21.696Z,63.18
2019-03-28T22:30:52.145Z,64.28
2019-03-28T22:33:21.902Z,64.60
2019-03-28T22:35:51.897Z,64.30
2019-03-28T22:38:22.153Z,64.30
2019-03-28T22:40:52.489Z,64.60
2019-03-28T22:43:22.618Z,64.29
2019-03-28T22:45:52.834Z,64.34
2019-03-28T22:48:22.572Z,63.53
2019-03-28T22:50:52.273Z,63.12
2019-03-28T22:53:22.063Z,62.52
2019-03-28T22:55:51.807Z,63.05
2019-03-28T22:58:21.901Z,63.26
2019-03-28T23:00:54.568Z,62.69
2019-03-28T23:03:24.909Z,62.33
2019-03-28T23:05:54.659Z,63.34
2019-03-28T23:08:24.734Z,63.23
2019-03-28T23:10:54.895Z,63.01
2019-03-28T23:13:24.645Z,61.07
2019-03-28T23:15:54.464Z,60.96
2019-03-28T23:18:25.224Z,60.89
2019-03-28T23:20:55.240Z,61.21
2019-03-28T23:23:25.899Z,61.01
2019-03-28T23:25:55.803Z,61.45
2019-03-28T23:28:25.532Z,62.11
2019-03-28T23:30:55.305Z,62.16
2019-03-28T23:33:25.435Z,62.38
2019-03-28T23:35:55.857Z,62.43
2019-03-28T23:38:26.387Z,60.81
2019-03-28T23:40:56.112Z,61.86
2019-03-28T23:43:25.877Z,62.18
2019-03-28T23:45:55.955Z,63.32
2019-03-28T23:48:26.414Z,64.05
2019-03-28T23:50:57.292Z,64.38
2019-03-28T23:53:27.253Z,65.15
2019-03-28T23:55:57.005Z,65.11
2019-03-28T23:58:26.807Z,66.00
